Time;durP1;ratioP1;P1;durP2;ratioP2;P2;SDS_P1;SDS_P2;PMS_P1;PMS_P2;Temp;Humidity;BMP_temperature;BMP_pressure;BME280_temperature;BME280_humidity;BME280_pressure;Samples;Min_cycle;Max_cycle;Signal;HPM_P1;HPM_P2
2022/01/22 00:00:40;;;;;;;15.84;9.94;;;;;;;-1.15;59.72;100193.70;462856;111;922537;-75
2022/01/22 00:01:45;;;;;;;14.65;8.94;;;;;;;-1.16;59.69;100192.04;461965;112;922538;-74
2022/01/22 00:02:49;;;;;;;18.84;11.21;;;;;;;-1.19;59.59;100201.19;462279;112;923232;-74
2022/01/22 00:03:53;;;;;;;15.86;11.34;;;;;;;-1.23;59.58;100198.97;461595;112;922487;-74
2022/01/22 00:04:55;;;;;;;19.26;11.24;;;;;;;-1.24;59.62;100194.60;460855;113;930336;-75
2022/01/22 00:05:59;;;;;;;16.87;11.18;;;;;;;-1.27;59.68;100193.08;462177;112;922547;-75
2022/01/22 00:07:04;;;;;;;22.73;12.84;;;;;;;-1.28;59.73;100200.27;462528;113;922574;-75
2022/01/22 00:08:09;;;;;;;21.92;12.51;;;;;;;-1.28;59.74;100202.09;458549;112;923742;-74
2022/01/22 00:09:12;;;;;;;17.64;12.41;;;;;;;-1.29;59.88;100201.25;461579;113;922995;-74
2022/01/22 00:10:19;;;;;;;17.77;12.65;;;;;;;-1.29;59.93;100203.92;462341;112;923052;-73
2022/01/22 00:11:21;;;;;;;21.75;13.12;;;;;;;-1.29;59.96;100203.92;461185;112;922693;-75
2022/01/22 00:12:42;;;;;;;19.43;12.00;;;;;;;-1.28;60.05;100207.44;462534;112;922592;-74
2022/01/22 00:14:53;;;;;;;18.16;12.73;;;;;;;-1.26;60.07;100214.31;462044;114;923118;-75
2022/01/22 00:15:56;;;;;;;20.12;13.34;;;;;;;-1.26;60.09;100214.31;462525;111;922608;-75
2022/01/22 00:17:01;;;;;;;21.12;13.59;;;;;;;-1.26;60.10;100216.98;462121;114;922593;-74
2022/01/22 00:18:04;;;;;;;20.26;12.43;;;;;;;-1.26;60.01;100211.63;462960;112;922866;-75
2022/01/22 00:19:09;;;;;;;19.52;12.75;;;;;;;-1.26;60.01;100222.33;460150;113;931094;-73
2022/01/22 00:20:14;;;;;;;26.64;14.48;;;;;;;-1.27;60.05;100215.30;461585;113;922545;-74
2022/01/22 00:21:18;;;;;;;23.50;13.54;;;;;;;-1.26;60.13;100219.66;460227;112;922512;-74
2022/01/22 00:22:25;;;;;;;21.16;13.60;;;;;;;-1.24;60.22;100222.19;452593;115;922788;-74
2022/01/22 00:23:28;;;;;;;19.31;14.38;;;;;;;-1.22;60.17;100219.38;443635;116;922702;-74
2022/01/22 00:24:37;;;;;;;18.82;12.71;;;;;;;-1.23;60.03;100218.53;446626;116;923103;-74
2022/01/22 00:25:36;;;;;;;21.11;12.66;;;;;;;-1.24;60.11;100219.52;462652;113;930602;-76
2022/01/22 00:26:41;;;;;;;19.10;12.91;;;;;;;-1.24;60.16;100218.67;462985;113;923015;-74
2022/01/22 00:27:45;;;;;;;18.40;13.39;;;;;;;-1.23;60.16;100223.03;461294;112;923459;-75
2022/01/22 00:28:48;;;;;;;19.32;12.04;;;;;;;-1.23;60.12;100215.02;461567;113;922734;-74
2022/01/22 00:29:52;;;;;;;19.41;11.87;;;;;;;-1.22;60.10;100230.08;461994;113;922860;-74
2022/01/22 00:30:55;;;;;;;18.04;11.97;;;;;;;-1.22;60.10;100222.05;462541;112;922537;-74
2022/01/22 00:31:58;;;;;;;16.11;11.48;;;;;;;-1.21;60.12;100223.74;462399;113;922664;-74
2022/01/22 00:33:02;;;;;;;14.05;11.44;;;;;;;-1.22;60.12;100228.25;461321;112;930425;-75
2022/01/22 00:34:07;;;;;;;15.61;10.78;;;;;;;-1.21;60.16;100226.42;462233;112;922736;-74
2022/01/22 00:35:11;;;;;;;17.46;10.72;;;;;;;-1.20;60.22;100222.73;461763;112;922601;-73
2022/01/22 00:36:14;;;;;;;13.89;10.12;;;;;;;-1.21;60.13;100235.26;462206;112;930429;-74
2022/01/22 00:37:17;;;;;;;12.22;9.59;;;;;;;-1.23;60.17;100236.41;462534;113;930672;-74
2022/01/22 00:38:21;;;;;;;14.68;8.91;;;;;;;-1.23;60.12;100233.73;452306;115;922665;-75
2022/01/22 00:39:24;;;;;;;12.11;9.28;;;;;;;-1.25;60.16;100228.52;462117;112;922627;-73
2022/01/22 00:40:27;;;;;;;14.03;10.28;;;;;;;-1.24;60.23;100234.72;462648;112;922579;-75
2022/01/22 00:41:31;;;;;;;14.63;9.98;;;;;;;-1.26;60.14;100226.84;462086;113;930402;-75
2022/01/22 00:42:34;;;;;;;13.32;10.08;;;;;;;-1.26;60.16;100221.48;462625;113;922761;-74
2022/01/22 00:43:37;;;;;;;11.43;9.44;;;;;;;-1.25;60.24;100228.52;463093;113;922599;-73
2022/01/22 00:44:41;;;;;;;13.81;9.21;;;;;;;-1.24;60.22;100224.02;461832;114;922652;-74
2022/01/22 00:45:44;;;;;;;11.50;8.57;;;;;;;-1.23;60.20;100226.55;460722;112;922782;-74
2022/01/22 00:46:48;;;;;;;12.88;9.39;;;;;;;-1.24;60.14;100230.22;462667;113;922619;-75
2022/01/22 00:47:51;;;;;;;9.13;8.13;;;;;;;-1.24;60.10;100224.87;460571;113;922987;-75
2022/01/22 00:48:54;;;;;;;10.86;9.13;;;;;;;-1.26;60.08;100225.00;461496;112;922550;-74
2022/01/22 00:49:57;;;;;;;10.41;8.62;;;;;;;-1.27;60.09;100220.64;462075;112;922914;-75
2022/01/22 00:51:00;;;;;;;12.20;9.94;;;;;;;-1.28;60.06;100221.66;462129;112;923125;-74
2022/01/22 00:52:04;;;;;;;10.48;9.42;;;;;;;-1.30;60.11;100223.63;462514;113;922963;-75
2022/01/22 00:53:07;;;;;;;11.08;8.83;;;;;;;-1.31;60.27;100213.91;462241;113;922556;-74
2022/01/22 00:54:10;;;;;;;11.87;8.98;;;;;;;-1.29;60.33;100221.80;462633;113;923015;-74
2022/01/22 00:55:14;;;;;;;11.36;9.07;;;;;;;-1.29;60.28;100213.77;462750;112;922528;-74
2022/01/22 00:56:18;;;;;;;10.90;8.42;;;;;;;-1.28;60.26;100215.46;461982;111;922604;-75
2022/01/22 00:57:21;;;;;;;9.21;7.87;;;;;;;-1.29;60.28;100221.80;461850;114;922627;-75
2022/01/22 00:58:24;;;;;;;11.07;8.19;;;;;;;-1.28;60.32;100224.33;461579;112;931105;-75
2022/01/22 00:59:27;;;;;;;12.31;8.87;;;;;;;-1.27;60.27;100220.64;462753;113;922734;-75
2022/01/22 01:00:30;;;;;;;13.14;8.79;;;;;;;-1.24;60.23;100224.02;462734;112;922578;-74
2022/01/22 01:01:34;;;;;;;13.41;9.11;;;;;;;-1.25;60.13;100223.17;462276;112;922978;-75
2022/01/22 01:02:39;;;;;;;12.89;9.34;;;;;;;-1.26;60.20;100222.33;461906;113;922622;-75
2022/01/22 01:03:43;;;;;;;14.16;11.67;;;;;;;-1.24;60.24;100219.52;462505;112;930443;-74
2022/01/22 01:04:46;;;;;;;14.89;10.54;;;;;;;-1.25;60.18;100217.83;462287;114;922591;-74
2022/01/22 01:05:50;;;;;;;14.30;10.98;;;;;;;-1.24;60.17;100221.34;461828;114;930408;-74
2022/01/22 01:06:53;;;;;;;16.34;11.82;;;;;;;-1.27;60.14;100223.31;462353;113;923201;-74
2022/01/22 01:07:56;;;;;;;19.40;11.75;;;;;;;-1.28;60.20;100218.14;461879;112;930535;-75
2022/01/22 01:09:01;;;;;;;16.34;11.61;;;;;;;-1.29;60.20;100227.14;460942;112;922556;-74
2022/01/22 01:10:08;;;;;;;17.51;11.86;;;;;;;-1.31;60.30;100227.28;451611;114;922743;-73
2022/01/22 01:11:13;;;;;;;24.66;12.62;;;;;;;-1.33;60.24;100223.09;444085;116;923680;-75
2022/01/22 01:12:16;;;;;;;16.89;11.19;;;;;;;-1.36;60.17;100220.69;460683;112;922646;-74
2022/01/22 01:13:21;;;;;;;14.95;11.62;;;;;;;-1.38;60.33;100223.50;459606;112;922667;-74
2022/01/22 01:14:35;;;;;;;17.35;11.86;;;;;;;-1.38;60.35;100217.34;460591;112;922747;-74
2022/01/22 01:15:55;;;;;;;17.98;11.41;;;;;;;-1.39;60.31;100221.00;459980;111;922587;-75
2022/01/22 01:33:03;;;;;;;9.47;7.86;;;;;;;-1.80;61.27;100239.12;459989;112;923403;-74
2022/01/22 01:34:11;;;;;;;11.04;9.04;;;;;;;-1.83;61.50;100236.77;458278;112;923330;-75
2022/01/22 01:35:09;;;;;;;9.83;7.99;;;;;;;-1.82;61.60;100234.94;458958;112;923248;-74
2022/01/22 01:36:15;;;;;;;11.96;8.54;;;;;;;-1.82;61.70;100234.94;462930;113;922809;-75
2022/01/22 01:37:19;;;;;;;12.02;8.32;;;;;;;-1.85;61.68;100233.37;461791;113;922886;-74
2022/01/22 01:38:24;;;;;;;10.21;8.17;;;;;;;-1.84;61.73;100236.90;445243;117;930836;-74
2022/01/22 01:39:32;;;;;;;8.91;8.02;;;;;;;-1.85;61.75;100238.72;455974;114;922735;-75
2022/01/22 01:40:36;;;;;;;9.67;8.67;;;;;;;-1.85;61.74;100232.53;461528;112;922739;-75
2022/01/22 01:41:49;;;;;;;10.33;8.94;;;;;;;-1.86;61.80;100237.03;461157;112;922836;-74
2022/01/22 01:42:51;;;;;;;11.23;8.45;;;;;;;-1.84;61.85;100236.90;452174;115;923245;-74
2022/01/22 01:43:49;;;;;;;12.88;8.88;;;;;;;-1.85;61.87;100240.55;452560;114;922834;-74
2022/01/22 01:45:00;;;;;;;9.15;7.91;;;;;;;-1.86;61.92;100244.20;458601;112;922681;-74
2022/01/22 01:46:04;;;;;;;10.76;8.90;;;;;;;-1.86;61.99;100237.03;460861;114;922631;-74
2022/01/22 01:47:10;;;;;;;12.89;9.09;;;;;;;-1.84;62.00;100242.23;461539;112;922746;-74
2022/01/22 01:48:19;;;;;;;15.66;9.97;;;;;;;-1.85;62.00;100233.37;461949;112;930400;-75
2022/01/22 01:49:19;;;;;;;11.29;9.13;;;;;;;-1.85;62.01;100237.88;461855;113;922622;-74
2022/01/22 01:50:25;;;;;;;13.07;10.12;;;;;;;-1.86;62.06;100238.86;461629;112;922703;-75
2022/01/22 01:51:31;;;;;;;10.89;9.21;;;;;;;-1.86;62.10;100245.05;462472;112;922706;-74
2022/01/22 01:53:59;;;;;;;30.47;21.74;;;;;;;-1.74;62.25;100238.56;465245;110;947136;-75
2022/01/22 01:57:25;;;;;;;19.27;13.65;;;;;;;-1.83;62.33;100239.44;452267;114;922650;-74
2022/01/22 01:57:27;;;;;;;14.11;12.49;;;;;;;-1.82;62.42;100241.09;452773;116;922909;-74
2022/01/22 01:58:28;;;;;;;16.42;13.43;;;;;;;-1.79;62.49;100243.49;451352;114;922652;-74
2022/01/22 01:59:32;;;;;;;16.86;13.17;;;;;;;-1.76;62.46;100243.19;454433;114;923077;-75
2022/01/22 02:00:36;;;;;;;13.22;9.97;;;;;;;-1.73;62.49;100239.41;453680;114;922707;-74
2022/01/22 02:01:39;;;;;;;9.94;8.83;;;;;;;-1.73;62.60;100234.06;455008;114;922668;-74
2022/01/22 02:02:47;;;;;;;14.51;9.29;;;;;;;-1.71;62.55;100234.77;452410;114;922715;-73
2022/01/22 02:03:53;;;;;;;12.19;9.18;;;;;;;-1.68;62.43;100237.14;453143;113;922624;-74
2022/01/22 02:04:57;;;;;;;12.43;8.64;;;;;;;-1.66;62.57;100234.33;452943;114;922585;-74
2022/01/22 02:06:01;;;;;;;11.59;8.79;;;;;;;-1.64;62.52;100235.84;453115;116;922708;-75
2022/01/22 02:07:05;;;;;;;8.91;7.94;;;;;;;-1.64;62.46;100232.33;453379;114;922855;-74
2022/01/22 02:08:12;;;;;;;9.41;7.98;;;;;;;-1.64;62.45;100222.48;447403;116;922651;-73
2022/01/22 02:09:17;;;;;;;10.16;8.43;;;;;;;-1.62;62.44;100239.23;447609;116;923326;-74
2022/01/22 02:10:27;;;;;;;9.67;7.94;;;;;;;-1.60;62.45;100231.92;452438;116;922658;-75
2022/01/22 02:11:29;;;;;;;9.67;8.51;;;;;;;-1.59;62.41;100238.92;452691;114;923354;-75
2022/01/22 02:13:36;;;;;;;12.79;9.81;;;;;;;-1.58;62.52;100235.27;450923;113;922821;-74
2022/01/22 02:23:29;;;;;;;14.31;8.71;;;;;;;-1.56;62.59;100238.66;450823;113;923111;-74
2022/01/22 02:23:52;;;;;;;8.48;6.96;;;;;;;-1.61;62.80;100240.92;452146;113;922628;-73
2022/01/22 02:24:56;;;;;;;11.61;7.41;;;;;;;-1.61;62.86;100234.73;453801;114;922618;-73
2022/01/22 02:25:59;;;;;;;9.38;7.12;;;;;;;-1.62;62.96;100236.56;449769;115;922762;-75
2022/01/22 02:27:04;;;;;;;10.58;7.04;;;;;;;-1.61;62.98;100243.59;450023;116;922654;-74
2022/01/22 02:28:11;;;;;;;9.96;7.12;;;;;;;-1.59;62.98;100238.92;452514;113;923080;-74
2022/01/22 02:29:14;;;;;;;10.77;7.73;;;;;;;-1.57;62.95;100244.98;453574;114;922551;-74
2022/01/22 02:30:38;;;;;;;9.66;6.30;;;;;;;-1.56;62.95;100241.33;451795;114;922705;-73
2022/01/22 02:32:48;;;;;;;8.39;7.16;;;;;;;-1.54;63.02;100241.16;450675;114;922915;-74
2022/01/22 02:34:26;;;;;;;10.51;7.20;;;;;;;-1.50;63.23;100245.25;448587;114;923725;-74
2022/01/22 02:35:33;;;;;;;7.99;6.72;;;;;;;-1.46;63.32;100244.80;450697;115;922563;-74
2022/01/22 02:36:43;;;;;;;9.18;7.17;;;;;;;-1.41;63.22;100241.69;452100;114;923132;-73
2022/01/22 02:37:48;;;;;;;10.15;6.93;;;;;;;-1.40;63.06;100232.68;452154;114;922600;-73
2022/01/22 02:39:04;;;;;;;9.12;6.93;;;;;;;-1.40;63.00;100241.55;454636;113;922672;-74
2022/01/22 02:40:07;;;;;;;9.27;7.17;;;;;;;-1.39;63.09;100237.89;453666;114;922593;-74
2022/01/22 02:41:05;;;;;;;8.41;7.04;;;;;;;-1.35;63.15;100235.75;452199;114;922897;-75
2022/01/22 02:42:10;;;;;;;8.36;6.94;;;;;;;-1.34;63.10;100234.77;453007;114;923002;-73
2022/01/22 02:43:14;;;;;;;10.24;6.92;;;;;;;-1.32;62.96;100238.12;453124;113;922690;-74
2022/01/22 02:44:35;;;;;;;7.94;6.78;;;;;;;-1.33;62.90;100241.81;444036;116;922713;-73
2022/01/22 02:45:42;;;;;;;10.96;6.83;;;;;;;-1.34;62.88;100237.45;448361;115;923164;-74
2022/01/22 02:46:48;;;;;;;7.92;6.53;;;;;;;-1.36;62.89;100240.25;452620;114;922852;-73
2022/01/22 02:47:51;;;;;;;9.06;6.86;;;;;;;-1.37;62.99;100243.91;452380;114;922625;-75
2022/01/22 02:48:56;;;;;;;9.36;7.20;;;;;;;-1.35;63.17;100247.30;452217;113;922539;-74
2022/01/22 02:49:59;;;;;;;7.04;6.09;;;;;;;-1.33;63.11;100244.48;452464;114;930536;-74
2022/01/22 02:51:03;;;;;;;7.78;6.80;;;;;;;-1.33;63.08;100247.16;448982;116;922838;-74
2022/01/22 02:52:08;;;;;;;9.34;6.41;;;;;;;-1.33;63.11;100248.00;449314;116;922735;-74
2022/01/22 02:53:13;;;;;;;9.07;6.44;;;;;;;-1.31;63.13;100251.36;450854;114;923203;-75
2022/01/22 02:54:17;;;;;;;8.66;6.23;;;;;;;-1.28;63.13;100252.91;453592;114;922595;-74
2022/01/22 02:55:20;;;;;;;8.44;6.25;;;;;;;-1.27;63.10;100244.71;453277;114;930690;-74
2022/01/22 02:56:25;;;;;;;7.88;5.89;;;;;;;-1.25;63.09;100255.27;444470;116;923140;-74
2022/01/22 02:57:31;;;;;;;8.13;6.22;;;;;;;-1.23;63.14;100255.98;444476;116;923224;-73
2022/01/22 02:58:34;;;;;;;8.56;7.48;;;;;;;-1.20;63.12;100249.48;435465;119;923173;-74
2022/01/22 02:59:37;;;;;;;9.22;7.16;;;;;;;-1.19;63.05;100256.52;445723;116;922652;-73
2022/01/22 03:00:41;;;;;;;9.49;6.90;;;;;;;-1.19;63.06;100249.34;453025;114;922743;-74
2022/01/22 03:01:45;;;;;;;6.89;6.19;;;;;;;-1.17;63.15;100252.72;452793;114;922603;-73
2022/01/22 03:02:50;;;;;;;9.58;6.87;;;;;;;-1.14;63.14;100248.89;452330;114;930491;-74
2022/01/22 03:03:54;;;;;;;7.55;6.74;;;;;;;-1.12;63.17;100247.77;450599;115;930824;-74
2022/01/22 03:04:57;;;;;;;7.94;7.16;;;;;;;-1.09;63.11;100251.95;450796;114;923152;-75
2022/01/22 03:06:01;;;;;;;7.65;6.40;;;;;;;-1.06;63.03;100251.67;453000;114;922641;-73
2022/01/22 03:07:04;;;;;;;8.08;7.26;;;;;;;-1.06;62.94;100244.50;452977;114;922921;-74
2022/01/22 03:08:09;;;;;;;7.79;6.95;;;;;;;-1.03;62.94;100248.69;451740;114;922500;-73
2022/01/22 03:09:16;;;;;;;8.89;7.17;;;;;;;-1.05;62.84;100242.67;453734;114;930690;-73
2022/01/22 03:10:22;;;;;;;7.27;6.53;;;;;;;-1.04;62.82;100252.35;453168;114;922713;-72
2022/01/22 03:11:29;;;;;;;10.92;6.11;;;;;;;-1.06;62.76;100246.33;453861;113;922976;-74
2022/01/22 03:12:53;;;;;;;9.23;7.17;;;;;;;-1.06;62.79;100257.03;450446;116;923048;-74
2022/01/22 03:16:29;;;;;;;9.07;7.59;;;;;;;-1.07;62.84;100260.69;453252;114;922490;-74
2022/01/22 03:17:51;;;;;;;28.33;21.96;;;;;;;-1.08;62.85;100259.00;449361;114;922531;-74
2022/01/22 03:19:02;;;;;;;30.75;24.24;;;;;;;-1.07;62.83;100260.69;452657;114;923089;-73
2022/01/22 03:23:04;;;;;;;14.67;13.23;;;;;;;-1.07;62.79;100264.21;451573;115;923007;-73
2022/01/22 03:27:41;;;;;;;7.11;5.77;;;;;;;-1.10;62.77;100258.33;453186;113;922892;-74
2022/01/22 03:29:03;;;;;;;7.04;6.21;;;;;;;-1.11;62.76;100257.48;452410;114;922779;-74
2022/01/22 03:30:00;;;;;;;6.42;5.74;;;;;;;-1.11;62.93;100262.83;452871;114;922681;-74
2022/01/22 03:31:03;;;;;;;6.54;5.71;;;;;;;-1.09;63.04;100260.83;454184;114;922655;-73
2022/01/22 03:32:11;;;;;;;6.66;5.97;;;;;;;-1.06;63.17;100262.38;452467;114;922504;-73
2022/01/22 03:33:15;;;;;;;7.16;5.11;;;;;;;-1.03;63.02;100259.39;452877;113;922802;-73
2022/01/22 03:34:18;;;;;;;7.84;5.98;;;;;;;-1.01;62.99;100265.45;453831;114;923291;-73
2022/01/22 03:36:30;;;;;;;7.62;5.79;;;;;;;-0.98;62.80;100263.31;447518;116;922840;-74
2022/01/22 03:37:34;;;;;;;7.11;5.86;;;;;;;-0.97;62.89;100262.33;447227;116;922657;-73
2022/01/22 03:38:37;;;;;;;6.77;5.24;;;;;;;-0.94;62.92;100263.87;450431;116;922965;-72
2022/01/22 03:39:42;;;;;;;6.98;5.46;;;;;;;-0.92;62.86;100261.88;449192;116;923083;-74
2022/01/22 03:40:49;;;;;;;7.36;5.36;;;;;;;-0.91;62.79;100267.08;453318;113;922641;-73
2022/01/22 03:41:52;;;;;;;7.41;5.34;;;;;;;-0.90;62.72;100262.58;451468;116;922936;-74
2022/01/22 03:42:56;;;;;;;6.91;5.64;;;;;;;-0.89;62.62;100266.95;451606;114;922599;-74
2022/01/22 03:43:59;;;;;;;7.36;5.48;;;;;;;-0.90;62.65;100266.09;453066;114;930695;-74
2022/01/22 03:45:08;;;;;;;7.64;5.85;;;;;;;-0.89;62.81;100261.59;452690;114;922609;-74
2022/01/22 03:46:13;;;;;;;9.50;5.74;;;;;;;-0.86;62.91;100263.95;451692;116;930531;-74
2022/01/22 03:47:16;;;;;;;7.86;5.77;;;;;;;-0.83;62.79;100258.32;454250;113;922788;-74
2022/01/22 03:48:19;;;;;;;6.08;5.29;;;;;;;-0.82;62.69;100268.01;453534;114;922676;-74
2022/01/22 03:49:22;;;;;;;8.31;5.82;;;;;;;-0.81;62.71;100267.02;453144;114;930721;-74
2022/01/22 03:50:28;;;;;;;6.84;5.60;;;;;;;-0.82;62.71;100262.66;451404;114;922580;-74
2022/01/22 03:51:31;;;;;;;6.91;5.02;;;;;;;-0.83;62.71;100270.86;452471;114;923142;-73
2022/01/22 03:52:35;;;;;;;6.24;5.32;;;;;;;-0.81;62.75;100272.38;452478;114;923009;-74
2022/01/22 03:53:39;;;;;;;6.38;5.09;;;;;;;-0.80;62.69;100273.22;452744;114;922650;-74
2022/01/22 03:54:42;;;;;;;8.51;5.11;;;;;;;-0.79;62.50;100282.94;451558;114;922606;-74
2022/01/22 03:56:03;;;;;;;7.96;5.98;;;;;;;-0.81;62.42;100276.88;453548;115;922701;-74
2022/01/22 03:57:08;;;;;;;6.83;5.07;;;;;;;-0.83;62.43;100279.73;452192;114;922875;-73
2022/01/22 03:58:13;;;;;;;5.82;5.06;;;;;;;-0.84;62.53;100275.36;452800;114;922613;-74
2022/01/22 03:59:17;;;;;;;6.58;5.59;;;;;;;-0.85;62.59;100276.35;452654;114;923653;-73
2022/01/22 04:00:31;;;;;;;6.88;5.26;;;;;;;-0.85;62.64;100282.55;453220;114;923011;-75
2022/01/22 04:03:26;;;;;;;7.41;5.13;;;;;;;-0.83;62.72;100276.20;450352;114;922952;-75
2022/01/22 04:04:10;;;;;;;5.94;4.77;;;;;;;-0.82;62.74;100272.52;452565;114;922635;-74
2022/01/22 04:05:10;;;;;;;5.96;5.28;;;;;;;-0.83;62.66;100278.89;453887;114;922544;-73
2022/01/22 04:08:30;;;;;;;6.87;5.50;;;;;;;-0.87;62.56;100284.52;453023;114;923195;-73
2022/01/22 04:09:37;;;;;;;6.66;5.14;;;;;;;-0.91;62.67;100280.46;452688;114;922392;-74
2022/01/22 04:10:38;;;;;;;6.82;5.13;;;;;;;-0.90;62.77;100281.31;450843;113;922776;-74
2022/01/22 04:11:44;;;;;;;8.49;4.97;;;;;;;-0.90;62.93;100286.66;453120;113;923130;-73
2022/01/22 04:13:06;;;;;;;6.57;4.99;;;;;;;-0.89;63.08;100277.65;451583;114;923110;-73
2022/01/22 04:14:05;;;;;;;6.82;4.74;;;;;;;-0.87;63.06;100281.84;450967;114;922618;-74
2022/01/22 04:15:11;;;;;;;5.55;4.88;;;;;;;-0.86;62.94;100280.02;451617;114;922854;-74
2022/01/22 04:16:15;;;;;;;8.72;5.34;;;;;;;-0.86;62.96;100280.02;452656;114;922681;-73
2022/01/22 04:24:47;;;;;;;8.63;5.50;;;;;;;-0.87;63.00;100286.34;453259;114;922600;-75
2022/01/22 04:24:50;;;;;;;8.01;5.58;;;;;;;-1.00;62.87;100296.58;452265;114;922736;-73
2022/01/22 04:25:07;;;;;;;8.95;5.99;;;;;;;-1.07;63.00;100298.99;452797;114;922689;-73
2022/01/22 04:26:25;;;;;;;6.62;5.57;;;;;;;-1.10;63.04;100298.45;452278;113;922845;-75
2022/01/22 04:27:24;;;;;;;7.61;5.63;;;;;;;-1.13;63.09;100301.41;451073;113;923308;-74
2022/01/22 04:28:24;;;;;;;6.61;5.57;;;;;;;-1.16;63.12;100301.71;452638;114;922739;-74
2022/01/22 04:29:27;;;;;;;8.37;5.26;;;;;;;-1.18;63.17;100303.68;452430;114;922557;-75
2022/01/22 04:30:32;;;;;;;7.19;5.48;;;;;;;-1.21;63.15;100298.64;451444;114;922616;-74
2022/01/22 04:31:35;;;;;;;7.16;6.46;;;;;;;-1.24;63.14;100294.41;449937;114;922511;-74
2022/01/22 04:32:38;;;;;;;11.39;8.08;;;;;;;-1.26;63.21;100299.89;451967;113;922795;-74
2022/01/22 04:33:42;;;;;;;13.61;11.24;;;;;;;-1.27;63.25;100300.06;453495;114;923088;-75
2022/01/22 04:34:45;;;;;;;14.29;11.59;;;;;;;-1.30;63.22;100295.84;451874;114;922741;-73
2022/01/22 04:35:48;;;;;;;13.05;11.77;;;;;;;-1.31;63.22;100295.97;451851;115;930538;-73
2022/01/22 04:36:51;;;;;;;12.43;10.88;;;;;;;-1.33;63.26;100304.16;453573;114;923179;-73
2022/01/22 04:37:54;;;;;;;16.55;8.19;;;;;;;-1.35;63.28;100300.78;453127;114;922611;-73
2022/01/22 04:38:57;;;;;;;10.50;7.01;;;;;;;-1.35;63.39;100298.11;453124;114;922599;-74
2022/01/22 04:40:00;;;;;;;7.64;6.53;;;;;;;-1.35;63.49;100306.13;452715;114;922757;-74
2022/01/22 04:41:05;;;;;;;7.22;5.78;;;;;;;-1.35;63.47;100300.78;452842;114;922769;-73
2022/01/22 04:42:09;;;;;;;6.75;5.65;;;;;;;-1.35;63.50;100303.45;453660;114;923483;-73
2022/01/22 04:43:12;;;;;;;6.59;5.46;;;;;;;-1.36;63.47;100304.44;453482;114;922854;-73
2022/01/22 04:44:15;;;;;;;9.15;5.67;;;;;;;-1.38;63.40;100301.05;452689;114;922825;-73
2022/01/22 04:48:11;;;;;;;8.18;5.87;;;;;;;-1.47;63.43;100314.45;451890;114;922628;-74
2022/01/22 04:49:11;;;;;;;7.71;5.97;;;;;;;-1.50;63.58;100315.61;452458;114;922574;-75
2022/01/22 04:55:22;;;;;;;7.29;5.11;;;;;;;-1.52;63.80;100316.72;449508;115;922685;-73
2022/01/22 04:56:26;;;;;;;8.71;4.84;;;;;;;-1.52;63.92;100322.06;451345;114;922648;-73
2022/01/22 04:57:33;;;;;;;5.99;4.88;;;;;;;-1.54;63.92;100319.53;453363;114;922692;-74
2022/01/22 04:58:36;;;;;;;6.88;5.04;;;;;;;-1.54;63.91;100316.86;453642;114;922840;-74
2022/01/22 04:59:39;;;;;;;8.13;5.72;;;;;;;-1.52;63.95;100325.59;451466;113;922548;-73
2022/01/22 05:00:45;;;;;;;6.56;5.24;;;;;;;-1.52;64.09;100322.91;452358;113;922520;-74
2022/01/22 05:01:50;;;;;;;6.07;5.41;;;;;;;-1.49;64.04;100327.15;449289;114;922665;-72
2022/01/22 05:02:59;;;;;;;6.76;5.83;;;;;;;-1.48;64.03;100326.98;450572;114;922949;-72
2022/01/22 05:04:13;;;;;;;6.83;5.13;;;;;;;-1.46;64.10;100329.52;428009;121;922898;-73
2022/01/22 05:05:28;;;;;;;7.62;5.67;;;;;;;-1.44;64.10;100335.58;426911;122;922875;-73
2022/01/22 05:06:33;;;;;;;5.08;4.58;;;;;;;-1.43;64.09;100321.19;427549;120;923221;-74
2022/01/22 05:07:43;;;;;;;8.32;5.57;;;;;;;-1.30;64.10;100325.25;471464;110;947077;-73
2022/01/22 05:08:59;;;;;;;6.01;4.89;;;;;;;-1.40;64.06;100326.27;454818;114;923107;-74
2022/01/22 05:10:09;;;;;;;9.23;5.74;;;;;;;-1.39;64.10;100331.48;453457;114;922688;-74
2022/01/22 05:11:12;;;;;;;8.66;6.91;;;;;;;-1.38;64.07;100330.47;456634;114;922557;-73
2022/01/22 05:12:17;;;;;;;6.67;5.46;;;;;;;-1.38;63.98;100327.80;456551;115;931024;-74
2022/01/22 05:13:20;;;;;;;7.93;5.40;;;;;;;-1.37;63.96;100329.48;456755;113;922612;-73
2022/01/22 05:14:24;;;;;;;9.07;6.19;;;;;;;-1.34;64.08;100331.05;456621;114;930607;-73
2022/01/22 05:15:28;;;;;;;8.18;5.47;;;;;;;-1.32;64.09;100329.89;456824;115;922716;-74
2022/01/22 05:16:32;;;;;;;7.86;5.48;;;;;;;-1.30;64.01;100333.28;456706;114;923037;-73
2022/01/22 05:17:39;;;;;;;7.56;5.72;;;;;;;-1.28;63.89;100335.81;456886;114;922851;-72
2022/01/22 05:18:53;;;;;;;8.99;6.78;;;;;;;-1.27;63.90;100332.16;455315;113;922627;-74
2022/01/22 05:20:05;;;;;;;7.56;6.77;;;;;;;-1.27;63.78;100327.63;455322;114;922930;-73
2022/01/22 05:21:05;;;;;;;7.36;6.60;;;;;;;-1.28;63.74;100333.98;452888;114;922684;-73
2022/01/22 05:22:09;;;;;;;7.09;5.58;;;;;;;-1.29;63.66;100332.30;455337;114;923638;-75
2022/01/22 05:23:14;;;;;;;8.27;5.81;;;;;;;-1.28;63.69;100335.81;450865;115;922641;-74
2022/01/22 05:24:19;;;;;;;7.52;5.66;;;;;;;-1.28;63.73;100336.66;451470;116;922773;-73
2022/01/22 05:25:25;;;;;;;7.04;6.34;;;;;;;-1.28;63.70;100325.13;455262;114;923126;-73
2022/01/22 05:29:20;;;;;;;7.22;6.36;;;;;;;-1.26;63.67;100329.31;450060;115;923694;-74
2022/01/22 05:30:51;;;;;;;7.17;6.13;;;;;;;-1.24;63.61;100334.53;456542;114;922796;-74
2022/01/22 05:37:49;;;;;;;6.87;5.44;;;;;;;-1.22;63.70;100351.29;456410;115;922492;-73
2022/01/22 05:38:53;;;;;;;8.04;5.66;;;;;;;-1.22;63.76;100340.59;456616;114;922638;-73
2022/01/22 05:39:56;;;;;;;7.18;5.96;;;;;;;-1.21;63.76;100344.11;456114;113;922640;-73
2022/01/22 05:40:59;;;;;;;6.86;5.96;;;;;;;-1.18;63.82;100346.48;456985;114;922880;-74
2022/01/22 05:42:05;;;;;;;7.79;5.51;;;;;;;-1.15;63.84;100338.15;456410;114;922902;-75
2022/01/22 05:43:08;;;;;;;7.38;6.07;;;;;;;-1.13;63.72;100336.19;455682;114;930586;-73
2022/01/22 05:44:11;;;;;;;7.89;5.26;;;;;;;-1.10;63.68;100333.23;457070;113;922662;-74
2022/01/22 05:45:14;;;;;;;7.29;6.01;;;;;;;-1.08;63.50;100341.94;456662;114;922685;-73
2022/01/22 05:46:20;;;;;;;6.69;5.03;;;;;;;-1.08;63.46;100337.43;456565;113;922821;-72
2022/01/22 05:47:26;;;;;;;8.11;5.77;;;;;;;-1.07;63.39;100338.28;456654;114;922868;-74
2022/01/22 05:48:28;;;;;;;7.72;5.86;;;;;;;-1.06;63.30;100337.30;456210;114;922659;-74
2022/01/22 05:49:34;;;;;;;7.49;6.25;;;;;;;-1.05;63.37;100337.16;456553;114;922732;-74
2022/01/22 05:51:02;;;;;;;6.91;5.61;;;;;;;-1.01;63.35;100338.54;456339;114;923015;-75
2022/01/22 05:51:45;;;;;;;6.62;5.67;;;;;;;-0.97;63.26;100339.08;442160;117;922868;-75
2022/01/22 05:52:56;;;;;;;7.43;6.66;;;;;;;-0.96;63.22;100335.42;434512;119;923681;-74
2022/01/22 05:59:35;;;;;;;6.70;5.44;;;;;;;-0.92;62.92;100332.30;455175;113;922665;-73
2022/01/22 06:00:38;;;;;;;8.41;4.73;;;;;;;-0.91;62.85;100330.47;455735;114;922684;-73
2022/01/22 06:01:44;;;;;;;9.69;5.58;;;;;;;-0.92;62.75;100336.80;455201;114;923093;-73
2022/01/22 06:02:52;;;;;;;7.01;5.47;;;;;;;-0.94;62.64;100338.80;456625;114;922614;-74
2022/01/22 06:03:55;;;;;;;7.58;6.58;;;;;;;-0.96;62.63;100338.94;456810;113;922617;-74
2022/01/22 06:04:59;;;;;;;7.11;5.98;;;;;;;-0.98;62.58;100330.20;456289;114;922622;-73
2022/01/22 06:06:02;;;;;;;7.08;6.17;;;;;;;-0.99;62.53;100324.99;456844;114;923194;-74
2022/01/22 06:07:08;;;;;;;7.10;6.39;;;;;;;-1.01;62.54;100326.98;456633;114;922723;-72
2022/01/22 06:08:15;;;;;;;7.48;6.52;;;;;;;-1.00;62.60;100328.69;456136;114;922675;-74
2022/01/22 06:09:16;;;;;;;7.79;6.02;;;;;;;-1.01;62.57;100329.67;456469;114;923109;-74
2022/01/22 06:10:27;;;;;;;8.72;6.48;;;;;;;-0.99;62.60;100327.67;456710;116;922968;-73